sensor_id;sensor_type;location;lat;lon;timestamp;P1;durP1;ratioP1;P2;durP2;ratioP2
16804;SDS011;8520;50.102;20.010;2023-04-21T00:00:25;14.63;;;13.33;;
16804;SDS011;8520;50.102;20.010;2023-04-21T00:02:53;14.73;;;12.30;;
16804;SDS011;8520;50.102;20.010;2023-04-21T00:05:22;14.07;;;12.73;;
16804;SDS011;8520;50.102;20.010;2023-04-21T00:07:50;13.97;;;12.70;;
16804;SDS011;8520;50.102;20.010;2023-04-21T00:10:18;14.47;;;12.70;;
16804;SDS011;8520;50.102;20.010;2023-04-21T00:12:46;13.67;;;12.47;;
16804;SDS011;8520;50.102;20.010;2023-04-21T00:15:14;17.47;;;13.33;;
16804;SDS011;8520;50.102;20.010;2023-04-21T00:17:44;14.60;;;12.93;;
16804;SDS011;8520;50.102;20.010;2023-04-21T00:20:12;15.50;;;14.00;;
16804;SDS011;8520;50.102;20.010;2023-04-21T00:22:40;16.83;;;13.00;;
16804;SDS011;8520;50.102;20.010;2023-04-21T00:25:09;14.53;;;13.10;;
16804;SDS011;8520;50.102;20.010;2023-04-21T00:27:37;14.33;;;12.93;;
16804;SDS011;8520;50.102;20.010;2023-04-21T00:30:05;14.27;;;12.50;;
16804;SDS011;8520;50.102;20.010;2023-04-21T00:32:35;13.43;;;12.03;;
16804;SDS011;8520;50.102;20.010;2023-04-21T00:35:05;13.57;;;12.17;;
16804;SDS011;8520;50.102;20.010;2023-04-21T00:37:34;13.63;;;12.30;;
16804;SDS011;8520;50.102;20.010;2023-04-21T00:40:02;13.40;;;12.10;;
16804;SDS011;8520;50.102;20.010;2023-04-21T00:42:31;12.93;;;11.77;;
16804;SDS011;8520;50.102;20.010;2023-04-21T00:44:59;15.03;;;12.40;;
16804;SDS011;8520;50.102;20.010;2023-04-21T00:47:29;14.83;;;12.20;;
16804;SDS011;8520;50.102;20.010;2023-04-21T00:49:57;14.63;;;12.07;;
16804;SDS011;8520;50.102;20.010;2023-04-21T00:52:27;12.30;;;11.30;;
16804;SDS011;8520;50.102;20.010;2023-04-21T00:54:56;14.13;;;11.80;;
16804;SDS011;8520;50.102;20.010;2023-04-21T00:57:24;16.80;;;11.63;;
16804;SDS011;8520;50.102;20.010;2023-04-21T00:59:54;13.07;;;11.70;;
16804;SDS011;8520;50.102;20.010;2023-04-21T01:02:23;15.33;;;10.83;;
16804;SDS011;8520;50.102;20.010;2023-04-21T01:04:51;12.83;;;11.57;;
16804;SDS011;8520;50.102;20.010;2023-04-21T01:07:19;13.33;;;12.03;;
16804;SDS011;8520;50.102;20.010;2023-04-21T01:09:49;13.97;;;11.80;;
16804;SDS011;8520;50.102;20.010;2023-04-21T01:12:17;12.43;;;11.33;;
16804;SDS011;8520;50.102;20.010;2023-04-21T01:14:45;12.87;;;11.53;;
16804;SDS011;8520;50.102;20.010;2023-04-21T01:17:14;13.23;;;11.90;;
16804;SDS011;8520;50.102;20.010;2023-04-21T01:19:46;12.17;;;10.83;;
16804;SDS011;8520;50.102;20.010;2023-04-21T01:22:15;12.87;;;11.57;;
16804;SDS011;8520;50.102;20.010;2023-04-21T01:24:45;13.13;;;11.93;;
16804;SDS011;8520;50.102;20.010;2023-04-21T01:27:15;12.93;;;11.53;;
16804;SDS011;8520;50.102;20.010;2023-04-21T01:29:46;12.73;;;11.43;;
16804;SDS011;8520;50.102;20.010;2023-04-21T01:32:16;12.00;;;10.80;;
16804;SDS011;8520;50.102;20.010;2023-04-21T01:34:47;13.67;;;11.80;;
16804;SDS011;8520;50.102;20.010;2023-04-21T01:37:18;13.23;;;12.10;;
16804;SDS011;8520;50.102;20.010;2023-04-21T01:39:51;14.90;;;11.57;;
16804;SDS011;8520;50.102;20.010;2023-04-21T01:42:21;12.70;;;11.43;;
16804;SDS011;8520;50.102;20.010;2023-04-21T01:44:51;12.30;;;11.00;;
16804;SDS011;8520;50.102;20.010;2023-04-21T01:47:20;13.60;;;12.20;;
16804;SDS011;8520;50.102;20.010;2023-04-21T01:49:48;13.00;;;11.77;;
16804;SDS011;8520;50.102;20.010;2023-04-21T01:52:18;12.63;;;11.30;;
16804;SDS011;8520;50.102;20.010;2023-04-21T01:54:47;13.30;;;11.87;;
16804;SDS011;8520;50.102;20.010;2023-04-21T01:57:15;12.03;;;10.87;;
16804;SDS011;8520;50.102;20.010;2023-04-21T01:59:44;14.70;;;12.10;;
16804;SDS011;8520;50.102;20.010;2023-04-21T02:02:12;14.90;;;11.70;;
16804;SDS011;8520;50.102;20.010;2023-04-21T02:04:40;12.63;;;11.40;;
16804;SDS011;8520;50.102;20.010;2023-04-21T02:07:08;12.33;;;11.13;;
16804;SDS011;8520;50.102;20.010;2023-04-21T02:09:40;12.77;;;11.47;;
16804;SDS011;8520;50.102;20.010;2023-04-21T02:12:08;12.53;;;11.33;;
16804;SDS011;8520;50.102;20.010;2023-04-21T02:14:40;13.87;;;11.70;;
16804;SDS011;8520;50.102;20.010;2023-04-21T02:17:09;12.40;;;11.17;;
16804;SDS011;8520;50.102;20.010;2023-04-21T02:19:37;14.63;;;12.07;;
16804;SDS011;8520;50.102;20.010;2023-04-21T02:22:05;13.10;;;11.93;;
16804;SDS011;8520;50.102;20.010;2023-04-21T02:24:33;12.40;;;11.17;;
16804;SDS011;8520;50.102;20.010;2023-04-21T02:27:03;12.10;;;10.90;;
16804;SDS011;8520;50.102;20.010;2023-04-21T02:29:31;13.90;;;12.13;;
16804;SDS011;8520;50.102;20.010;2023-04-21T02:31:59;12.93;;;11.73;;
16804;SDS011;8520;50.102;20.010;2023-04-21T02:34:43;14.03;;;12.23;;
16804;SDS011;8520;50.102;20.010;2023-04-21T02:37:11;15.73;;;12.27;;
16804;SDS011;8520;50.102;20.010;2023-04-21T02:39:39;13.43;;;12.17;;
16804;SDS011;8520;50.102;20.010;2023-04-21T02:42:10;13.73;;;12.33;;
16804;SDS011;8520;50.102;20.010;2023-04-21T02:44:38;13.50;;;12.10;;
16804;SDS011;8520;50.102;20.010;2023-04-21T02:47:08;13.67;;;12.40;;
16804;SDS011;8520;50.102;20.010;2023-04-21T02:49:38;12.73;;;11.73;;
16804;SDS011;8520;50.102;20.010;2023-04-21T02:52:07;13.27;;;12.07;;
16804;SDS011;8520;50.102;20.010;2023-04-21T02:54:36;12.97;;;11.83;;
16804;SDS011;8520;50.102;20.010;2023-04-21T02:57:04;13.07;;;11.97;;
16804;SDS011;8520;50.102;20.010;2023-04-21T02:59:33;12.90;;;11.80;;
16804;SDS011;8520;50.102;20.010;2023-04-21T03:02:01;13.50;;;12.10;;
16804;SDS011;8520;50.102;20.010;2023-04-21T03:04:30;13.33;;;12.10;;
16804;SDS011;8520;50.102;20.010;2023-04-21T03:06:59;13.73;;;12.60;;
16804;SDS011;8520;50.102;20.010;2023-04-21T03:09:28;13.90;;;12.50;;
16804;SDS011;8520;50.102;20.010;2023-04-21T03:11:57;13.23;;;12.00;;
16804;SDS011;8520;50.102;20.010;2023-04-21T03:14:26;14.10;;;12.63;;
16804;SDS011;8520;50.102;20.010;2023-04-21T03:16:55;13.10;;;12.10;;
16804;SDS011;8520;50.102;20.010;2023-04-21T03:19:23;12.97;;;11.87;;
16804;SDS011;8520;50.102;20.010;2023-04-21T03:21:51;14.57;;;12.93;;
16804;SDS011;8520;50.102;20.010;2023-04-21T03:24:19;16.27;;;13.17;;
16804;SDS011;8520;50.102;20.010;2023-04-21T03:26:48;14.83;;;13.33;;
16804;SDS011;8520;50.102;20.010;2023-04-21T03:29:16;13.73;;;12.33;;
16804;SDS011;8520;50.102;20.010;2023-04-21T03:31:45;13.60;;;12.30;;
16804;SDS011;8520;50.102;20.010;2023-04-21T03:34:15;14.13;;;12.77;;
16804;SDS011;8520;50.102;20.010;2023-04-21T03:36:43;13.70;;;12.50;;
16804;SDS011;8520;50.102;20.010;2023-04-21T03:39:11;16.13;;;13.10;;
16804;SDS011;8520;50.102;20.010;2023-04-21T03:41:44;15.10;;;13.53;;
16804;SDS011;8520;50.102;20.010;2023-04-21T03:44:13;14.07;;;12.90;;
16804;SDS011;8520;50.102;20.010;2023-04-21T03:46:45;13.93;;;12.70;;
16804;SDS011;8520;50.102;20.010;2023-04-21T03:49:15;14.93;;;13.63;;
16804;SDS011;8520;50.102;20.010;2023-04-21T03:51:43;14.87;;;13.37;;
16804;SDS011;8520;50.102;20.010;2023-04-21T03:54:11;14.63;;;13.17;;
16804;SDS011;8520;50.102;20.010;2023-04-21T03:56:39;14.67;;;13.43;;
16804;SDS011;8520;50.102;20.010;2023-04-21T03:59:07;15.03;;;13.63;;
16804;SDS011;8520;50.102;20.010;2023-04-21T04:01:36;15.50;;;13.90;;
16804;SDS011;8520;50.102;20.010;2023-04-21T04:04:04;15.03;;;13.63;;
16804;SDS011;8520;50.102;20.010;2023-04-21T04:06:34;15.27;;;13.77;;
16804;SDS011;8520;50.102;20.010;2023-04-21T04:09:02;14.93;;;13.63;;
16804;SDS011;8520;50.102;20.010;2023-04-21T04:11:30;14.60;;;13.33;;
16804;SDS011;8520;50.102;20.010;2023-04-21T04:13:58;15.10;;;13.70;;
16804;SDS011;8520;50.102;20.010;2023-04-21T04:16:27;15.50;;;13.87;;
16804;SDS011;8520;50.102;20.010;2023-04-21T04:18:56;14.30;;;12.97;;
16804;SDS011;8520;50.102;20.010;2023-04-21T04:21:24;15.10;;;13.63;;
16804;SDS011;8520;50.102;20.010;2023-04-21T04:23:54;14.97;;;13.53;;
16804;SDS011;8520;50.102;20.010;2023-04-21T04:26:22;14.80;;;13.37;;
16804;SDS011;8520;50.102;20.010;2023-04-21T04:28:51;15.17;;;13.67;;
16804;SDS011;8520;50.102;20.010;2023-04-21T04:31:22;14.60;;;13.20;;
16804;SDS011;8520;50.102;20.010;2023-04-21T04:33:51;14.97;;;13.47;;
16804;SDS011;8520;50.102;20.010;2023-04-21T04:36:21;15.73;;;14.20;;
16804;SDS011;8520;50.102;20.010;2023-04-21T04:39:01;15.73;;;14.23;;
16804;SDS011;8520;50.102;20.010;2023-04-21T04:41:29;17.10;;;13.63;;
16804;SDS011;8520;50.102;20.010;2023-04-21T04:43:59;15.03;;;13.40;;
16804;SDS011;8520;50.102;20.010;2023-04-21T04:46:27;15.13;;;13.70;;
16804;SDS011;8520;50.102;20.010;2023-04-21T04:48:55;15.27;;;13.87;;
16804;SDS011;8520;50.102;20.010;2023-04-21T04:51:23;14.70;;;13.43;;
16804;SDS011;8520;50.102;20.010;2023-04-21T04:53:51;14.73;;;13.33;;
16804;SDS011;8520;50.102;20.010;2023-04-21T04:56:21;15.47;;;14.03;;
16804;SDS011;8520;50.102;20.010;2023-04-21T04:58:49;14.97;;;13.30;;
16804;SDS011;8520;50.102;20.010;2023-04-21T05:01:18;14.40;;;13.00;;
16804;SDS011;8520;50.102;20.010;2023-04-21T05:03:46;16.07;;;14.50;;
16804;SDS011;8520;50.102;20.010;2023-04-21T05:06:14;15.10;;;13.63;;
16804;SDS011;8520;50.102;20.010;2023-04-21T05:08:42;15.57;;;13.97;;
16804;SDS011;8520;50.102;20.010;2023-04-21T05:11:11;14.87;;;13.47;;
16804;SDS011;8520;50.102;20.010;2023-04-21T05:13:40;15.03;;;13.53;;
16804;SDS011;8520;50.102;20.010;2023-04-21T05:16:08;14.80;;;13.17;;
16804;SDS011;8520;50.102;20.010;2023-04-21T05:18:37;15.83;;;13.90;;
16804;SDS011;8520;50.102;20.010;2023-04-21T05:21:05;15.77;;;13.87;;
16804;SDS011;8520;50.102;20.010;2023-04-21T05:23:33;16.27;;;14.70;;
16804;SDS011;8520;50.102;20.010;2023-04-21T05:26:01;15.07;;;13.67;;
16804;SDS011;8520;50.102;20.010;2023-04-21T05:28:30;16.10;;;14.27;;
16804;SDS011;8520;50.102;20.010;2023-04-21T05:31:00;17.03;;;14.07;;
16804;SDS011;8520;50.102;20.010;2023-04-21T05:33:28;21.30;;;14.87;;
16804;SDS011;8520;50.102;20.010;2023-04-21T05:35:57;22.33;;;14.70;;
16804;SDS011;8520;50.102;20.010;2023-04-21T05:38:25;20.07;;;13.90;;
16804;SDS011;8520;50.102;20.010;2023-04-21T05:40:53;15.53;;;14.10;;
16804;SDS011;8520;50.102;20.010;2023-04-21T05:43:22;15.00;;;13.80;;
16804;SDS011;8520;50.102;20.010;2023-04-21T05:45:50;15.10;;;13.60;;
16804;SDS011;8520;50.102;20.010;2023-04-21T05:48:19;14.43;;;12.93;;
16804;SDS011;8520;50.102;20.010;2023-04-21T05:50:48;16.30;;;14.10;;
16804;SDS011;8520;50.102;20.010;2023-04-21T05:53:16;16.03;;;14.33;;
16804;SDS011;8520;50.102;20.010;2023-04-21T05:55:45;16.47;;;13.97;;
16804;SDS011;8520;50.102;20.010;2023-04-21T05:58:13;14.50;;;13.07;;
16804;SDS011;8520;50.102;20.010;2023-04-21T06:00:41;18.57;;;13.90;;
16804;SDS011;8520;50.102;20.010;2023-04-21T06:03:09;18.77;;;13.97;;
16804;SDS011;8520;50.102;20.010;2023-04-21T06:05:39;16.00;;;13.53;;
16804;SDS011;8520;50.102;20.010;2023-04-21T06:08:07;13.80;;;12.60;;
16804;SDS011;8520;50.102;20.010;2023-04-21T06:10:35;17.93;;;12.53;;
16804;SDS011;8520;50.102;20.010;2023-04-21T06:13:03;13.93;;;12.53;;
16804;SDS011;8520;50.102;20.010;2023-04-21T06:15:31;13.43;;;12.13;;
16804;SDS011;8520;50.102;20.010;2023-04-21T06:17:59;14.37;;;12.57;;
16804;SDS011;8520;50.102;20.010;2023-04-21T06:20:27;15.10;;;12.60;;
16804;SDS011;8520;50.102;20.010;2023-04-21T06:22:57;14.50;;;12.37;;
16804;SDS011;8520;50.102;20.010;2023-04-21T06:25:25;14.00;;;12.70;;
16804;SDS011;8520;50.102;20.010;2023-04-21T06:27:53;14.53;;;12.37;;
16804;SDS011;8520;50.102;20.010;2023-04-21T06:30:21;13.47;;;12.03;;
16804;SDS011;8520;50.102;20.010;2023-04-21T06:32:50;13.97;;;12.57;;
16804;SDS011;8520;50.102;20.010;2023-04-21T06:35:18;14.10;;;12.20;;
16804;SDS011;8520;50.102;20.010;2023-04-21T06:37:46;14.13;;;12.17;;
16804;SDS011;8520;50.102;20.010;2023-04-21T06:40:16;21.57;;;13.40;;
16804;SDS011;8520;50.102;20.010;2023-04-21T06:42:44;17.90;;;12.80;;
16804;SDS011;8520;50.102;20.010;2023-04-21T06:45:12;13.67;;;12.10;;
16804;SDS011;8520;50.102;20.010;2023-04-21T06:47:41;27.87;;;13.23;;
16804;SDS011;8520;50.102;20.010;2023-04-21T06:50:09;17.70;;;12.17;;
16804;SDS011;8520;50.102;20.010;2023-04-21T06:52:37;19.37;;;12.60;;
16804;SDS011;8520;50.102;20.010;2023-04-21T06:55:06;13.10;;;11.70;;
16804;SDS011;8520;50.102;20.010;2023-04-21T06:57:36;16.83;;;11.87;;
16804;SDS011;8520;50.102;20.010;2023-04-21T07:00:04;15.80;;;12.13;;
16804;SDS011;8520;50.102;20.010;2023-04-21T07:02:33;14.90;;;12.00;;
16804;SDS011;8520;50.102;20.010;2023-04-21T07:05:01;14.63;;;12.03;;
16804;SDS011;8520;50.102;20.010;2023-04-21T07:07:30;13.70;;;12.30;;
16804;SDS011;8520;50.102;20.010;2023-04-21T07:09:58;13.60;;;11.70;;
16804;SDS011;8520;50.102;20.010;2023-04-21T07:12:26;13.90;;;12.33;;
16804;SDS011;8520;50.102;20.010;2023-04-21T07:14:55;16.80;;;11.30;;
16804;SDS011;8520;50.102;20.010;2023-04-21T07:17:24;14.90;;;11.05;;
16804;SDS011;8520;50.102;20.010;2023-04-21T07:19:52;14.20;;;11.23;;
16804;SDS011;8520;50.102;20.010;2023-04-21T07:22:20;15.02;;;11.90;;
16804;SDS011;8520;50.102;20.010;2023-04-21T07:24:48;12.35;;;10.95;;
16804;SDS011;8520;50.102;20.010;2023-04-21T07:27:16;19.85;;;11.30;;
16804;SDS011;8520;50.102;20.010;2023-04-21T07:29:45;16.17;;;11.18;;
16804;SDS011;8520;50.102;20.010;2023-04-21T07:32:15;14.07;;;11.23;;
16804;SDS011;8520;50.102;20.010;2023-04-21T07:34:43;14.35;;;11.27;;
16804;SDS011;8520;50.102;20.010;2023-04-21T07:37:12;12.02;;;10.65;;
16804;SDS011;8520;50.102;20.010;2023-04-21T07:39:40;12.15;;;10.23;;
16804;SDS011;8520;50.102;20.010;2023-04-21T07:42:08;14.25;;;10.15;;
16804;SDS011;8520;50.102;20.010;2023-04-21T07:44:37;12.25;;;10.27;;
16804;SDS011;8520;50.102;20.010;2023-04-21T07:47:05;11.48;;;10.05;;
16804;SDS011;8520;50.102;20.010;2023-04-21T07:49:35;10.73;;;9.77;;
16804;SDS011;8520;50.102;20.010;2023-04-21T07:52:03;11.32;;;10.05;;
16804;SDS011;8520;50.102;20.010;2023-04-21T07:54:31;14.13;;;10.48;;
16804;SDS011;8520;50.102;20.010;2023-04-21T07:56:59;13.45;;;10.35;;
16804;SDS011;8520;50.102;20.010;2023-04-21T07:59:28;14.82;;;11.05;;
16804;SDS011;8520;50.102;20.010;2023-04-21T08:01:56;12.68;;;11.07;;
16804;SDS011;8520;50.102;20.010;2023-04-21T08:04:24;13.80;;;11.68;;
16804;SDS011;8520;50.102;20.010;2023-04-21T08:06:54;12.50;;;10.80;;
16804;SDS011;8520;50.102;20.010;2023-04-21T08:09:22;11.90;;;10.80;;
16804;SDS011;8520;50.102;20.010;2023-04-21T08:11:50;13.40;;;11.40;;
16804;SDS011;8520;50.102;20.010;2023-04-21T08:14:19;14.10;;;11.70;;
16804;SDS011;8520;50.102;20.010;2023-04-21T08:16:47;13.73;;;12.10;;
16804;SDS011;8520;50.102;20.010;2023-04-21T08:19:16;12.30;;;11.07;;
16804;SDS011;8520;50.102;20.010;2023-04-21T08:21:45;12.40;;;11.30;;
16804;SDS011;8520;50.102;20.010;2023-04-21T08:24:14;12.15;;;10.88;;
16804;SDS011;8520;50.102;20.010;2023-04-21T08:26:43;13.35;;;12.00;;
16804;SDS011;8520;50.102;20.010;2023-04-21T08:29:11;11.70;;;10.70;;
16804;SDS011;8520;50.102;20.010;2023-04-21T08:31:39;12.35;;;11.27;;
16804;SDS011;8520;50.102;20.010;2023-04-21T08:34:08;13.02;;;11.52;;
16804;SDS011;8520;50.102;20.010;2023-04-21T08:36:36;12.40;;;11.40;;
16804;SDS011;8520;50.102;20.010;2023-04-21T08:39:04;12.50;;;11.20;;
16804;SDS011;8520;50.102;20.010;2023-04-21T08:41:33;11.85;;;10.65;;
16804;SDS011;8520;50.102;20.010;2023-04-21T08:44:02;12.25;;;11.23;;
16804;SDS011;8520;50.102;20.010;2023-04-21T08:46:31;11.70;;;10.80;;
16804;SDS011;8520;50.102;20.010;2023-04-21T08:49:00;12.18;;;11.13;;
16804;SDS011;8520;50.102;20.010;2023-04-21T08:51:29;12.40;;;11.27;;
16804;SDS011;8520;50.102;20.010;2023-04-21T08:53:57;12.55;;;11.43;;
16804;SDS011;8520;50.102;20.010;2023-04-21T08:56:25;12.25;;;11.13;;
16804;SDS011;8520;50.102;20.010;2023-04-21T08:58:55;11.68;;;10.00;;
16804;SDS011;8520;50.102;20.010;2023-04-21T09:01:23;11.65;;;10.60;;
16804;SDS011;8520;50.102;20.010;2023-04-21T09:03:51;11.90;;;11.00;;
16804;SDS011;8520;50.102;20.010;2023-04-21T09:06:20;11.85;;;10.60;;
16804;SDS011;8520;50.102;20.010;2023-04-21T09:08:51;12.25;;;11.15;;
16804;SDS011;8520;50.102;20.010;2023-04-21T09:11:22;12.45;;;11.35;;
16804;SDS011;8520;50.102;20.010;2023-04-21T09:13:51;12.52;;;11.43;;
16804;SDS011;8520;50.102;20.010;2023-04-21T09:16:25;12.75;;;10.60;;
16804;SDS011;8520;50.102;20.010;2023-04-21T09:18:58;16.02;;;10.57;;
16804;SDS011;8520;50.102;20.010;2023-04-21T09:21:27;11.77;;;10.75;;
16804;SDS011;8520;50.102;20.010;2023-04-21T09:24:00;10.90;;;9.95;;
16804;SDS011;8520;50.102;20.010;2023-04-21T09:26:32;11.75;;;10.63;;
16804;SDS011;8520;50.102;20.010;2023-04-21T09:29:04;12.23;;;11.15;;
16804;SDS011;8520;50.102;20.010;2023-04-21T09:31:34;12.32;;;11.23;;
16804;SDS011;8520;50.102;20.010;2023-04-21T09:34:11;13.13;;;11.93;;
16804;SDS011;8520;50.102;20.010;2023-04-21T09:36:45;12.55;;;11.40;;
16804;SDS011;8520;50.102;20.010;2023-04-21T09:39:13;11.75;;;9.98;;
16804;SDS011;8520;50.102;20.010;2023-04-21T09:41:45;10.43;;;9.52;;
16804;SDS011;8520;50.102;20.010;2023-04-21T09:44:14;11.85;;;10.80;;
16804;SDS011;8520;50.102;20.010;2023-04-21T09:46:45;11.70;;;10.90;;
16804;SDS011;8520;50.102;20.010;2023-04-21T09:49:16;11.35;;;10.25;;
16804;SDS011;8520;50.102;20.010;2023-04-21T09:51:44;9.52;;;8.73;;
16804;SDS011;8520;50.102;20.010;2023-04-21T09:54:16;8.98;;;8.18;;
16804;SDS011;8520;50.102;20.010;2023-04-21T09:56:57;9.85;;;8.93;;
16804;SDS011;8520;50.102;20.010;2023-04-21T09:59:29;7.72;;;7.13;;
16804;SDS011;8520;50.102;20.010;2023-04-21T10:01:59;8.80;;;8.00;;
16804;SDS011;8520;50.102;20.010;2023-04-21T10:04:31;9.23;;;8.35;;
16804;SDS011;8520;50.102;20.010;2023-04-21T10:07:02;8.27;;;7.63;;
16804;SDS011;8520;50.102;20.010;2023-04-21T10:09:30;8.50;;;7.63;;
16804;SDS011;8520;50.102;20.010;2023-04-21T10:12:03;7.38;;;6.60;;
16804;SDS011;8520;50.102;20.010;2023-04-21T10:14:36;6.75;;;6.25;;
16804;SDS011;8520;50.102;20.010;2023-04-21T10:17:05;7.00;;;6.00;;
16804;SDS011;8520;50.102;20.010;2023-04-21T10:19:35;6.95;;;6.55;;
16804;SDS011;8520;50.102;20.010;2023-04-21T10:22:06;7.70;;;6.90;;
16804;SDS011;8520;50.102;20.010;2023-04-21T10:24:36;9.70;;;8.75;;
16804;SDS011;8520;50.102;20.010;2023-04-21T10:27:08;8.32;;;7.70;;
16804;SDS011;8520;50.102;20.010;2023-04-21T10:29:39;8.55;;;7.68;;
16804;SDS011;8520;50.102;20.010;2023-04-21T10:32:37;8.55;;;7.40;;
16804;SDS011;8520;50.102;20.010;2023-04-21T10:35:08;8.35;;;7.65;;
16804;SDS011;8520;50.102;20.010;2023-04-21T10:37:36;7.63;;;6.97;;
16804;SDS011;8520;50.102;20.010;2023-04-21T10:40:05;9.18;;;6.95;;
16804;SDS011;8520;50.102;20.010;2023-04-21T10:42:36;6.75;;;6.30;;
16804;SDS011;8520;50.102;20.010;2023-04-21T10:45:07;6.85;;;6.40;;
16804;SDS011;8520;50.102;20.010;2023-04-21T10:47:38;7.20;;;6.75;;
16804;SDS011;8520;50.102;20.010;2023-04-21T10:50:12;7.72;;;7.15;;
16804;SDS011;8520;50.102;20.010;2023-04-21T10:52:45;7.22;;;6.72;;
16804;SDS011;8520;50.102;20.010;2023-04-21T10:55:19;7.35;;;6.80;;
16804;SDS011;8520;50.102;20.010;2023-04-21T10:57:48;7.97;;;7.38;;
16804;SDS011;8520;50.102;20.010;2023-04-21T11:00:18;7.60;;;6.78;;
16804;SDS011;8520;50.102;20.010;2023-04-21T11:02:55;7.60;;;6.90;;
16804;SDS011;8520;50.102;20.010;2023-04-21T11:05:32;8.65;;;7.68;;
16804;SDS011;8520;50.102;20.010;2023-04-21T11:08:10;7.93;;;7.25;;
16804;SDS011;8520;50.102;20.010;2023-04-21T11:10:41;8.18;;;7.55;;
16804;SDS011;8520;50.102;20.010;2023-04-21T11:13:10;8.50;;;7.70;;
16804;SDS011;8520;50.102;20.010;2023-04-21T11:15:39;7.63;;;7.13;;
16804;SDS011;8520;50.102;20.010;2023-04-21T11:18:08;8.15;;;7.45;;
16804;SDS011;8520;50.102;20.010;2023-04-21T11:20:38;7.72;;;6.95;;
16804;SDS011;8520;50.102;20.010;2023-04-21T11:23:15;7.53;;;6.70;;
16804;SDS011;8520;50.102;20.010;2023-04-21T11:25:44;7.13;;;6.63;;
16804;SDS011;8520;50.102;20.010;2023-04-21T11:28:19;6.63;;;6.10;;
16804;SDS011;8520;50.102;20.010;2023-04-21T11:30:50;8.60;;;7.20;;
16804;SDS011;8520;50.102;20.010;2023-04-21T11:33:18;7.47;;;6.90;;
16804;SDS011;8520;50.102;20.010;2023-04-21T11:35:46;6.60;;;6.10;;
16804;SDS011;8520;50.102;20.010;2023-04-21T11:38:17;7.22;;;6.72;;
16804;SDS011;8520;50.102;20.010;2023-04-21T11:40:45;7.10;;;6.53;;
16804;SDS011;8520;50.102;20.010;2023-04-21T11:43:14;7.60;;;6.95;;
16804;SDS011;8520;50.102;20.010;2023-04-21T11:45:42;7.20;;;6.80;;
16804;SDS011;8520;50.102;20.010;2023-04-21T11:48:16;6.13;;;5.65;;
16804;SDS011;8520;50.102;20.010;2023-04-21T11:50:46;6.10;;;5.60;;
16804;SDS011;8520;50.102;20.010;2023-04-21T11:53:14;6.15;;;5.50;;
16804;SDS011;8520;50.102;20.010;2023-04-21T11:55:44;10.80;;;5.70;;
16804;SDS011;8520;50.102;20.010;2023-04-21T11:58:12;6.20;;;5.72;;
16804;SDS011;8520;50.102;20.010;2023-04-21T12:00:43;6.70;;;6.07;;
16804;SDS011;8520;50.102;20.010;2023-04-21T12:03:12;6.63;;;6.13;;
16804;SDS011;8520;50.102;20.010;2023-04-21T12:05:42;6.50;;;6.00;;
16804;SDS011;8520;50.102;20.010;2023-04-21T12:08:12;6.70;;;5.68;;
16804;SDS011;8520;50.102;20.010;2023-04-21T12:10:43;6.60;;;6.00;;
16804;SDS011;8520;50.102;20.010;2023-04-21T12:13:12;6.95;;;5.80;;
16804;SDS011;8520;50.102;20.010;2023-04-21T12:15:48;6.18;;;5.78;;
16804;SDS011;8520;50.102;20.010;2023-04-21T12:18:17;5.82;;;5.35;;
16804;SDS011;8520;50.102;20.010;2023-04-21T12:20:50;6.43;;;6.03;;
16804;SDS011;8520;50.102;20.010;2023-04-21T12:23:18;5.60;;;5.13;;
16804;SDS011;8520;50.102;20.010;2023-04-21T12:25:46;7.47;;;5.70;;
16804;SDS011;8520;50.102;20.010;2023-04-21T12:28:15;5.70;;;5.20;;
16804;SDS011;8520;50.102;20.010;2023-04-21T12:30:44;7.10;;;6.10;;
16804;SDS011;8520;50.102;20.010;2023-04-21T12:33:12;5.13;;;4.82;;
16804;SDS011;8520;50.102;20.010;2023-04-21T12:35:40;5.53;;;5.03;;
16804;SDS011;8520;50.102;20.010;2023-04-21T12:38:10;5.93;;;5.50;;
16804;SDS011;8520;50.102;20.010;2023-04-21T12:40:38;5.25;;;4.93;;
16804;SDS011;8520;50.102;20.010;2023-04-21T12:43:06;5.05;;;4.57;;
16804;SDS011;8520;50.102;20.010;2023-04-21T12:45:34;5.65;;;5.28;;
16804;SDS011;8520;50.102;20.010;2023-04-21T12:48:02;6.13;;;5.72;;
16804;SDS011;8520;50.102;20.010;2023-04-21T12:50:30;6.07;;;5.68;;
16804;SDS011;8520;50.102;20.010;2023-04-21T12:52:58;5.80;;;5.07;;
16804;SDS011;8520;50.102;20.010;2023-04-21T12:55:28;5.60;;;5.22;;
16804;SDS011;8520;50.102;20.010;2023-04-21T12:57:56;5.15;;;4.93;;
16804;SDS011;8520;50.102;20.010;2023-04-21T13:00:25;5.60;;;4.95;;
16804;SDS011;8520;50.102;20.010;2023-04-21T13:02:53;6.07;;;5.68;;
16804;SDS011;8520;50.102;20.010;2023-04-21T13:05:22;6.43;;;5.72;;
16804;SDS011;8520;50.102;20.010;2023-04-21T13:07:51;6.50;;;5.80;;
16804;SDS011;8520;50.102;20.010;2023-04-21T13:10:19;5.97;;;5.55;;
16804;SDS011;8520;50.102;20.010;2023-04-21T13:12:49;5.47;;;5.13;;
16804;SDS011;8520;50.102;20.010;2023-04-21T13:15:17;4.95;;;4.55;;
16804;SDS011;8520;50.102;20.010;2023-04-21T13:17:45;6.18;;;5.60;;
16804;SDS011;8520;50.102;20.010;2023-04-21T13:20:13;5.15;;;4.90;;
16804;SDS011;8520;50.102;20.010;2023-04-21T13:22:44;5.78;;;5.25;;
16804;SDS011;8520;50.102;20.010;2023-04-21T13:25:12;5.32;;;4.85;;
16804;SDS011;8520;50.102;20.010;2023-04-21T13:27:41;5.03;;;4.72;;
16804;SDS011;8520;50.102;20.010;2023-04-21T13:30:11;4.97;;;4.13;;
16804;SDS011;8520;50.102;20.010;2023-04-21T13:32:41;4.97;;;4.60;;
16804;SDS011;8520;50.102;20.010;2023-04-21T13:35:10;6.10;;;5.50;;
16804;SDS011;8520;50.102;20.010;2023-04-21T13:37:39;5.88;;;5.43;;
16804;SDS011;8520;50.102;20.010;2023-04-21T13:40:08;5.95;;;5.47;;
16804;SDS011;8520;50.102;20.010;2023-04-21T13:42:37;5.40;;;4.90;;
16804;SDS011;8520;50.102;20.010;2023-04-21T13:45:06;5.00;;;4.70;;
16804;SDS011;8520;50.102;20.010;2023-04-21T13:47:36;5.43;;;5.13;;
16804;SDS011;8520;50.102;20.010;2023-04-21T13:50:05;5.20;;;4.72;;
16804;SDS011;8520;50.102;20.010;2023-04-21T13:52:34;5.60;;;5.10;;
16804;SDS011;8520;50.102;20.010;2023-04-21T13:55:02;5.07;;;4.68;;
16804;SDS011;8520;50.102;20.010;2023-04-21T13:57:31;5.32;;;4.97;;
16804;SDS011;8520;50.102;20.010;2023-04-21T13:59:59;5.85;;;5.32;;
16804;SDS011;8520;50.102;20.010;2023-04-21T14:02:29;5.05;;;4.75;;
16804;SDS011;8520;50.102;20.010;2023-04-21T14:04:59;5.75;;;5.35;;
16804;SDS011;8520;50.102;20.010;2023-04-21T14:07:28;5.45;;;5.05;;
16804;SDS011;8520;50.102;20.010;2023-04-21T14:09:56;5.40;;;5.05;;
16804;SDS011;8520;50.102;20.010;2023-04-21T14:12:25;5.30;;;4.90;;
16804;SDS011;8520;50.102;20.010;2023-04-21T14:14:53;5.32;;;4.82;;
16804;SDS011;8520;50.102;20.010;2023-04-21T14:17:21;6.43;;;5.93;;
16804;SDS011;8520;50.102;20.010;2023-04-21T14:19:49;5.60;;;5.30;;
16804;SDS011;8520;50.102;20.010;2023-04-21T14:22:22;6.80;;;6.30;;
16804;SDS011;8520;50.102;20.010;2023-04-21T14:24:50;5.43;;;5.13;;
16804;SDS011;8520;50.102;20.010;2023-04-21T14:27:18;5.68;;;5.18;;
16804;SDS011;8520;50.102;20.010;2023-04-21T14:29:46;6.38;;;5.47;;
16804;SDS011;8520;50.102;20.010;2023-04-21T14:32:14;7.93;;;5.28;;
16804;SDS011;8520;50.102;20.010;2023-04-21T14:34:46;5.70;;;5.15;;
16804;SDS011;8520;50.102;20.010;2023-04-21T14:37:18;8.23;;;5.45;;
16804;SDS011;8520;50.102;20.010;2023-04-21T14:39:50;5.90;;;5.43;;
16804;SDS011;8520;50.102;20.010;2023-04-21T14:42:18;6.20;;;5.72;;